createdAt,value
2023-03-08T00:01:14.599Z,19.48
2023-03-08T00:02:37.914Z,22.30
2023-03-08T00:04:00.615Z,20.95
2023-03-08T00:05:23.164Z,25.05
2023-03-08T00:06:44.336Z,24.48
2023-03-08T00:08:08.853Z,23.38
2023-03-08T00:09:31.361Z,25.70
2023-03-08T00:10:55.222Z,21.38
2023-03-08T00:12:19.414Z,23.17
2023-03-08T00:13:42.348Z,24.00
2023-03-08T00:15:04.767Z,23.10
2023-03-08T00:16:26.151Z,26.20
2023-03-08T00:17:48.433Z,25.75
2023-03-08T00:19:09.619Z,25.60
2023-03-08T00:20:32.321Z,28.88
2023-03-08T00:21:54.575Z,26.25
2023-03-08T00:23:15.619Z,23.88
2023-03-08T00:24:41.019Z,19.13
2023-03-08T00:26:04.509Z,24.58
2023-03-08T00:27:27.238Z,22.30
2023-03-08T00:28:49.384Z,22.27
2023-03-08T00:30:13.283Z,21.02
2023-03-08T00:31:37.125Z,23.70
2023-03-08T00:32:58.188Z,23.92
2023-03-08T00:34:20.690Z,21.77
2023-03-08T00:35:42.063Z,22.70
2023-03-08T00:37:05.045Z,23.08
2023-03-08T00:38:26.828Z,19.45
2023-03-08T00:39:53.151Z,22.95
2023-03-08T00:41:16.031Z,22.15
2023-03-08T00:42:38.364Z,22.33
2023-03-08T00:44:01.407Z,20.17
2023-03-08T00:45:22.553Z,20.55
2023-03-08T00:46:44.973Z,19.83
2023-03-08T00:48:08.440Z,21.45
2023-03-08T00:49:31.086Z,20.88
2023-03-08T00:50:53.778Z,22.05
2023-03-08T00:52:16.088Z,20.90
2023-03-08T00:53:39.958Z,18.77
2023-03-08T00:55:01.272Z,19.00
2023-03-08T00:56:25.310Z,21.33
2023-03-08T00:57:46.823Z,16.77
2023-03-08T00:59:09.380Z,17.65
2023-03-08T01:00:31.793Z,21.02
2023-03-08T01:01:54.526Z,17.88
2023-03-08T01:03:17.389Z,17.17
2023-03-08T01:04:39.943Z,17.23
2023-03-08T01:06:08.808Z,20.15
2023-03-08T01:07:32.324Z,17.60
2023-03-08T01:08:55.447Z,19.73
2023-03-08T01:10:18.728Z,17.13
2023-03-08T01:13:09.734Z,16.27
2023-03-08T01:14:31.409Z,17.75
2023-03-08T01:15:54.137Z,18.10
2023-03-08T01:17:16.409Z,18.13
2023-03-08T01:18:39.065Z,16.90
2023-03-08T01:20:01.594Z,17.63
2023-03-08T01:21:24.895Z,18.73
2023-03-08T01:22:49.398Z,17.25
2023-03-08T01:24:12.855Z,17.45
2023-03-08T01:25:35.119Z,17.98
2023-03-08T01:27:01.132Z,17.00
2023-03-08T01:28:22.075Z,16.92
2023-03-08T01:29:44.875Z,16.48
2023-03-08T01:31:17.905Z,17.13
2023-03-08T01:32:39.418Z,13.82
2023-03-08T01:34:02.002Z,14.95
2023-03-08T01:35:23.207Z,16.45
2023-03-08T01:36:45.627Z,12.40
2023-03-08T01:38:06.790Z,10.88
2023-03-08T01:39:29.060Z,13.63
2023-03-08T01:40:50.369Z,10.38
2023-03-08T01:42:14.125Z,10.25
2023-03-08T01:43:37.789Z,12.88
2023-03-08T01:45:04.799Z,13.98
2023-03-08T01:46:31.376Z,11.73
2023-03-08T01:48:22.074Z,15.32
2023-03-08T01:49:55.239Z,10.73
2023-03-08T01:51:22.917Z,11.88
2023-03-08T01:52:50.375Z,12.30
2023-03-08T01:54:18.997Z,10.38
2023-03-08T01:55:40.435Z,11.02
2023-03-08T01:57:06.017Z,12.23
2023-03-08T01:58:29.636Z,11.70
2023-03-08T01:59:54.232Z,32.38
2023-03-08T02:01:15.785Z,11.35
2023-03-08T02:02:43.603Z,11.70
2023-03-08T02:04:06.439Z,9.15
2023-03-08T02:05:30.924Z,10.90
2023-03-08T02:07:01.136Z,11.55
2023-03-08T02:08:22.379Z,11.18
2023-03-08T02:09:47.693Z,13.45
2023-03-08T02:11:10.860Z,13.13
2023-03-08T02:12:34.038Z,10.82
2023-03-08T02:13:57.339Z,10.85
2023-03-08T02:15:22.810Z,14.55
2023-03-08T02:16:49.462Z,9.77
2023-03-08T02:18:11.170Z,11.48
2023-03-08T02:19:42.889Z,12.73
2023-03-08T02:21:04.732Z,10.50
2023-03-08T02:22:29.892Z,13.43
2023-03-08T02:23:52.974Z,11.57
2023-03-08T02:25:17.214Z,14.80
2023-03-08T02:26:40.861Z,9.98
2023-03-08T02:28:05.141Z,8.80
2023-03-08T02:29:26.768Z,8.45
2023-03-08T02:30:51.472Z,10.65
2023-03-08T02:32:14.447Z,6.85
2023-03-08T02:33:35.731Z,11.38
2023-03-08T02:34:58.499Z,8.70
2023-03-08T02:36:19.602Z,8.70
2023-03-08T02:37:42.049Z,10.70
2023-03-08T02:39:06.161Z,11.63
2023-03-08T02:40:27.781Z,10.35
2023-03-08T02:41:51.445Z,8.77
2023-03-08T02:43:14.400Z,11.70
2023-03-08T02:44:35.883Z,8.27
2023-03-08T02:46:02.998Z,8.48
2023-03-08T02:47:47.165Z,10.00
2023-03-08T02:49:11.337Z,6.35
2023-03-08T02:50:38.856Z,8.57
2023-03-08T02:52:04.252Z,8.55
2023-03-08T02:53:26.397Z,9.02
2023-03-08T02:54:49.121Z,8.35
2023-03-08T02:56:11.514Z,9.00
2023-03-08T02:57:32.852Z,11.40
2023-03-08T02:58:55.136Z,9.77
2023-03-08T03:00:18.532Z,10.05
2023-03-08T03:01:41.289Z,7.88
2023-03-08T03:03:05.601Z,7.90
2023-03-08T03:04:31.139Z,8.52
2023-03-08T03:05:57.057Z,7.55
2023-03-08T03:07:34.228Z,7.20
2023-03-08T03:08:56.858Z,8.63
2023-03-08T03:10:21.128Z,8.30
2023-03-08T03:11:43.943Z,7.78
2023-03-08T03:13:06.802Z,9.15
2023-03-08T03:14:28.744Z,6.53
2023-03-08T03:15:51.992Z,7.80
2023-03-08T03:17:13.465Z,7.95
2023-03-08T03:18:35.610Z,7.73
2023-03-08T03:19:56.758Z,8.60
2023-03-08T03:21:19.474Z,7.93
2023-03-08T03:22:41.697Z,10.68
2023-03-08T03:24:03.264Z,7.63
2023-03-08T03:25:39.937Z,9.30
2023-03-08T03:27:06.604Z,11.85
2023-03-08T03:28:29.621Z,6.90
2023-03-08T03:29:54.944Z,11.10
2023-03-08T03:31:19.451Z,7.55
2023-03-08T03:32:42.087Z,7.75
2023-03-08T03:34:05.325Z,7.75
2023-03-08T03:35:28.082Z,6.35
2023-03-08T03:36:51.305Z,10.05
2023-03-08T03:38:13.896Z,8.07
2023-03-08T03:39:39.762Z,7.43
2023-03-08T03:41:07.060Z,7.03
2023-03-08T03:42:29.477Z,8.85
2023-03-08T03:44:01.048Z,9.60
2023-03-08T03:45:23.380Z,7.43
2023-03-08T03:46:46.117Z,8.15
2023-03-08T03:48:10.617Z,10.45
2023-03-08T03:50:56.034Z,10.50
2023-03-08T03:52:18.640Z,6.28
2023-03-08T03:53:50.633Z,9.68
2023-03-08T03:55:13.997Z,5.43
2023-03-08T03:56:38.006Z,10.50
2023-03-08T03:58:01.876Z,7.10
2023-03-08T03:59:25.623Z,9.20
2023-03-08T04:00:49.104Z,8.93
2023-03-08T04:02:21.844Z,9.18
2023-03-08T04:03:48.982Z,9.80
2023-03-08T04:05:11.301Z,19.17
2023-03-08T04:06:35.354Z,6.63
2023-03-08T04:08:00.263Z,8.88
2023-03-08T04:09:25.777Z,7.35
2023-03-08T04:11:01.745Z,10.73
2023-03-08T04:12:25.242Z,11.82
2023-03-08T04:13:47.919Z,8.77
2023-03-08T04:15:17.275Z,9.52
2023-03-08T04:16:42.714Z,7.82
2023-03-08T04:18:23.508Z,7.88
2023-03-08T04:19:51.948Z,5.05
2023-03-08T04:21:47.512Z,8.10
2023-03-08T04:23:11.446Z,6.47
2023-03-08T04:24:37.540Z,7.72
2023-03-08T04:26:06.040Z,11.27
2023-03-08T04:27:32.528Z,9.18
2023-03-08T04:28:54.175Z,7.97
2023-03-08T04:30:17.871Z,9.38
2023-03-08T04:31:39.525Z,6.68
2023-03-08T04:33:06.282Z,8.98
2023-03-08T04:34:39.870Z,7.45
2023-03-08T04:36:02.167Z,9.93
2023-03-08T04:37:24.616Z,9.60
2023-03-08T04:38:51.295Z,11.00
2023-03-08T04:40:13.589Z,6.78
2023-03-08T04:41:46.059Z,9.20
2023-03-08T04:43:19.181Z,9.07
2023-03-08T04:44:42.210Z,8.32
2023-03-08T04:46:08.310Z,9.05
2023-03-08T04:47:32.798Z,10.70
2023-03-08T04:48:57.016Z,8.52
2023-03-08T04:50:22.180Z,8.18
2023-03-08T04:51:44.389Z,9.27
2023-03-08T04:53:08.316Z,13.13
2023-03-08T04:54:31.268Z,11.77
2023-03-08T04:55:59.317Z,10.95
2023-03-08T04:57:22.418Z,10.82
2023-03-08T04:58:49.510Z,8.95
2023-03-08T05:00:15.022Z,8.02
2023-03-08T05:01:39.053Z,7.85
2023-03-08T05:03:01.218Z,8.32
2023-03-08T05:05:49.092Z,8.88
2023-03-08T05:07:11.413Z,9.35
2023-03-08T05:08:33.188Z,9.52
2023-03-08T05:09:55.529Z,11.68
2023-03-08T05:11:22.690Z,11.05
2023-03-08T05:12:44.291Z,13.10
2023-03-08T05:14:08.632Z,9.65
2023-03-08T05:15:30.278Z,8.35
2023-03-08T05:16:55.825Z,11.95
2023-03-08T05:18:17.006Z,14.52
2023-03-08T05:19:39.747Z,12.23
2023-03-08T05:21:05.300Z,12.45
2023-03-08T05:22:28.931Z,10.77
2023-03-08T05:23:53.087Z,13.82
2023-03-08T05:25:19.863Z,12.80
2023-03-08T05:26:42.357Z,16.63
2023-03-08T05:28:06.052Z,14.45
2023-03-08T05:31:02.773Z,15.82
2023-03-08T05:32:26.255Z,14.88
2023-03-08T05:33:51.497Z,16.83
2023-03-08T05:36:46.852Z,12.00
2023-03-08T05:38:08.084Z,15.40
2023-03-08T05:39:31.183Z,17.50
2023-03-08T05:41:06.505Z,15.85
2023-03-08T05:42:32.745Z,22.73
2023-03-08T05:43:55.617Z,13.43
2023-03-08T05:45:18.945Z,17.50
2023-03-08T05:46:41.390Z,17.13
2023-03-08T05:48:04.613Z,14.48
2023-03-08T05:49:29.503Z,14.98
2023-03-08T05:50:52.951Z,16.17
2023-03-08T05:52:17.310Z,19.27
2023-03-08T05:53:39.476Z,14.93
2023-03-08T05:56:25.509Z,17.15
2023-03-08T05:57:58.107Z,21.17
2023-03-08T05:59:20.586Z,17.95
2023-03-08T06:00:44.465Z,16.90
2023-03-08T06:02:08.937Z,17.85
2023-03-08T06:03:48.274Z,19.00
2023-03-08T06:05:13.623Z,15.57
2023-03-08T06:06:36.707Z,14.40
2023-03-08T06:08:01.158Z,17.45
2023-03-08T06:09:22.690Z,15.85
2023-03-08T06:13:31.187Z,18.83
2023-03-08T06:14:52.197Z,19.13
2023-03-08T06:16:18.853Z,18.70
2023-03-08T06:17:41.318Z,17.88
2023-03-08T06:19:04.566Z,17.20
2023-03-08T06:20:28.747Z,18.13
2023-03-08T06:21:51.169Z,16.38
2023-03-08T06:23:12.196Z,15.18
2023-03-08T06:24:34.744Z,14.48
2023-03-08T06:26:01.266Z,16.58
2023-03-08T06:27:25.796Z,19.25
2023-03-08T06:28:52.462Z,14.13
2023-03-08T06:30:14.870Z,15.98
2023-03-08T06:31:43.714Z,15.48
2023-03-08T06:33:07.460Z,14.38
2023-03-08T06:34:29.865Z,14.75
2023-03-08T06:35:59.700Z,12.70
2023-03-08T06:37:22.542Z,15.02
2023-03-08T06:38:45.121Z,18.48
2023-03-08T06:40:09.420Z,15.52
2023-03-08T06:41:32.154Z,15.02
2023-03-08T06:42:56.436Z,15.73
2023-03-08T06:44:18.835Z,18.27
2023-03-08T06:45:41.539Z,11.60
2023-03-08T06:47:06.143Z,14.13
2023-03-08T06:48:27.738Z,13.38
2023-03-08T06:49:50.869Z,15.45
2023-03-08T06:51:13.661Z,17.25
2023-03-08T06:52:39.675Z,14.35
2023-03-08T06:54:03.510Z,15.45
2023-03-08T06:55:26.427Z,15.20
2023-03-08T06:56:49.084Z,15.00
2023-03-08T06:58:10.674Z,12.60
2023-03-08T06:59:32.942Z,13.90
2023-03-08T07:00:55.517Z,16.10
2023-03-08T07:02:19.501Z,15.60
2023-03-08T07:03:42.121Z,11.35
2023-03-08T07:05:04.802Z,13.10
2023-03-08T07:06:27.311Z,11.80
2023-03-08T07:07:49.988Z,13.23
2023-03-08T07:09:13.560Z,11.15
2023-03-08T07:10:39.310Z,12.75
2023-03-08T07:12:01.818Z,12.82
2023-03-08T07:13:24.422Z,12.02
2023-03-08T07:14:49.423Z,13.05
2023-03-08T07:16:14.622Z,15.43
2023-03-08T07:17:38.682Z,12.15
2023-03-08T07:19:02.486Z,11.55
2023-03-08T07:20:26.634Z,11.32
2023-03-08T07:21:49.012Z,13.30
2023-03-08T07:23:11.333Z,13.30
2023-03-08T07:24:33.570Z,16.75
2023-03-08T07:25:56.440Z,12.82
2023-03-08T07:27:19.130Z,11.88
2023-03-08T07:28:43.383Z,12.50
2023-03-08T07:30:09.838Z,9.13
2023-03-08T07:31:36.293Z,12.52
2023-03-08T07:32:59.275Z,15.45
2023-03-08T07:34:21.604Z,10.68
2023-03-08T07:35:43.950Z,16.27
2023-03-08T07:37:07.612Z,15.80
2023-03-08T07:38:29.725Z,9.70
2023-03-08T07:39:53.332Z,13.27
2023-03-08T07:41:15.843Z,10.48
2023-03-08T07:42:38.066Z,10.80
2023-03-08T07:44:19.537Z,13.82
2023-03-08T07:45:42.340Z,8.98
2023-03-08T07:47:04.804Z,10.77
2023-03-08T07:48:29.664Z,13.80
2023-03-08T07:49:52.349Z,13.20
2023-03-08T07:51:15.004Z,10.43
2023-03-08T07:52:37.187Z,10.70
2023-03-08T07:53:59.515Z,8.35
2023-03-08T07:55:22.435Z,10.10
2023-03-08T07:56:44.819Z,11.30
2023-03-08T07:58:07.276Z,11.05
2023-03-08T07:59:29.737Z,10.35
2023-03-08T08:00:52.024Z,11.18
2023-03-08T08:02:15.933Z,7.75
2023-03-08T08:03:40.831Z,18.13
2023-03-08T08:05:04.189Z,8.50
2023-03-08T08:06:27.187Z,9.43
2023-03-08T08:07:49.916Z,12.07
2023-03-08T08:09:14.895Z,8.55
2023-03-08T08:10:37.783Z,8.18
2023-03-08T08:12:00.399Z,10.60
2023-03-08T08:13:22.500Z,10.55
2023-03-08T08:14:45.369Z,10.93
2023-03-08T08:16:08.795Z,13.45
2023-03-08T08:17:31.373Z,12.18
2023-03-08T08:18:55.892Z,10.95
2023-03-08T08:20:18.769Z,12.55
2023-03-08T08:21:41.406Z,11.32
2023-03-08T08:23:09.471Z,10.40
2023-03-08T08:24:33.554Z,9.43
2023-03-08T08:25:56.603Z,12.32
2023-03-08T08:27:22.612Z,11.35
2023-03-08T08:28:46.827Z,11.82
2023-03-08T08:30:15.466Z,12.10
2023-03-08T08:31:38.074Z,9.60
2023-03-08T08:33:03.727Z,13.98
2023-03-08T08:34:27.964Z,11.38
2023-03-08T08:36:03.282Z,10.93
2023-03-08T08:37:26.741Z,13.30
2023-03-08T08:38:49.659Z,15.35
2023-03-08T08:40:13.651Z,10.75
2023-03-08T08:41:36.562Z,11.40
2023-03-08T08:42:59.171Z,12.55
2023-03-08T08:44:21.514Z,12.20
2023-03-08T08:45:47.366Z,13.60
2023-03-08T08:47:09.973Z,15.80
2023-03-08T08:48:33.430Z,13.98
2023-03-08T08:49:57.740Z,13.77
2023-03-08T08:51:19.326Z,15.45
2023-03-08T08:54:07.079Z,17.88
2023-03-08T08:55:29.564Z,27.70
2023-03-08T08:56:51.790Z,37.17
2023-03-08T08:58:14.449Z,27.75
2023-03-08T08:59:36.966Z,25.75
2023-03-08T09:00:59.284Z,17.02
2023-03-08T09:02:22.894Z,19.42
2023-03-08T09:03:45.191Z,16.95
2023-03-08T09:05:10.883Z,16.67
2023-03-08T09:06:33.413Z,13.55
2023-03-08T09:07:58.569Z,15.50
2023-03-08T09:09:23.300Z,16.48
2023-03-08T09:10:45.658Z,14.93
2023-03-08T09:12:08.840Z,19.25
2023-03-08T09:13:33.763Z,16.27
2023-03-08T09:14:56.714Z,17.58
2023-03-08T09:16:20.534Z,12.80
2023-03-08T09:17:45.784Z,13.98
2023-03-08T09:19:08.968Z,12.75
2023-03-08T09:20:34.885Z,10.60
2023-03-08T09:21:57.825Z,15.10
2023-03-08T09:23:20.557Z,14.95
2023-03-08T09:24:43.006Z,14.13
2023-03-08T09:26:06.231Z,13.02
2023-03-08T09:27:28.876Z,15.80
2023-03-08T09:28:51.239Z,14.00
2023-03-08T09:30:15.642Z,12.43
2023-03-08T09:31:39.616Z,13.43
2023-03-08T09:33:04.163Z,13.90
2023-03-08T09:34:26.882Z,13.98
2023-03-08T09:35:58.696Z,12.40
2023-03-08T09:37:21.030Z,11.85
2023-03-08T09:38:43.898Z,15.30
2023-03-08T09:40:10.305Z,16.23
2023-03-08T09:42:08.050Z,17.63
2023-03-08T09:43:49.098Z,14.15
2023-03-08T09:45:24.704Z,13.98
2023-03-08T09:47:01.789Z,12.63
2023-03-08T09:48:29.900Z,14.13
2023-03-08T09:50:22.959Z,13.05
2023-03-08T09:52:24.547Z,12.35
2023-03-08T09:53:58.067Z,12.07
2023-03-08T09:55:30.502Z,10.55
2023-03-08T09:56:56.563Z,11.55
2023-03-08T09:58:32.698Z,10.93
2023-03-08T10:00:21.949Z,16.73
2023-03-08T10:02:08.754Z,9.73
2023-03-08T10:04:18.008Z,9.27
2023-03-08T10:06:21.285Z,10.23
2023-03-08T10:08:13.483Z,12.00
2023-03-08T10:09:41.866Z,11.25
2023-03-08T10:11:18.040Z,11.07
2023-03-08T10:12:51.835Z,9.88
2023-03-08T10:14:21.059Z,10.40
2023-03-08T10:15:47.450Z,8.68
2023-03-08T10:17:15.159Z,8.82
2023-03-08T10:18:44.787Z,11.45
2023-03-08T10:20:14.671Z,8.30
2023-03-08T10:21:42.218Z,7.60
2023-03-08T10:23:21.274Z,10.18
2023-03-08T10:25:01.800Z,9.02
2023-03-08T10:26:30.738Z,8.30
2023-03-08T10:27:59.480Z,10.07
2023-03-08T10:29:22.256Z,16.33
2023-03-08T10:30:48.327Z,10.38
2023-03-08T10:32:15.277Z,12.48
2023-03-08T10:33:39.179Z,12.65
2023-03-08T10:35:05.720Z,14.00
2023-03-08T10:36:30.532Z,13.90
2023-03-08T10:37:53.611Z,12.75
2023-03-08T10:39:17.969Z,15.48
2023-03-08T10:40:44.755Z,30.38
2023-03-08T10:42:16.438Z,49.55
2023-03-08T10:43:51.174Z,32.90
2023-03-08T10:45:32.469Z,25.45
2023-03-08T10:47:06.687Z,24.80
2023-03-08T10:48:33.753Z,20.63
2023-03-08T10:50:24.879Z,51.65
2023-03-08T10:52:05.840Z,30.83
2023-03-08T10:53:40.258Z,81.90
2023-03-08T10:55:19.974Z,49.67
2023-03-08T10:56:54.105Z,21.40
2023-03-08T10:58:36.523Z,42.95
2023-03-08T11:00:05.652Z,21.02
2023-03-08T11:01:31.871Z,29.55
2023-03-08T11:03:04.921Z,21.90
2023-03-08T11:04:28.638Z,27.13
2023-03-08T11:05:57.037Z,38.63
2023-03-08T11:07:25.042Z,26.75
2023-03-08T11:08:55.275Z,21.73
2023-03-08T11:10:20.121Z,22.10
2023-03-08T11:11:43.687Z,21.75
2023-03-08T11:13:31.610Z,22.13
2023-03-08T11:14:54.777Z,25.58
2023-03-08T11:16:30.707Z,20.15
2023-03-08T11:17:57.827Z,19.48
2023-03-08T11:19:54.161Z,16.73
2023-03-08T11:21:30.938Z,22.67
2023-03-08T11:23:06.482Z,17.02
2023-03-08T11:24:42.856Z,16.17
2023-03-08T11:26:13.871Z,18.48
2023-03-08T11:27:51.651Z,16.05
2023-03-08T11:29:30.442Z,17.27
2023-03-08T11:31:06.066Z,14.70
2023-03-08T11:32:42.440Z,15.77
2023-03-08T11:34:30.538Z,17.08
2023-03-08T11:36:04.565Z,17.85
2023-03-08T11:37:50.466Z,19.58
2023-03-08T11:39:20.734Z,17.15
2023-03-08T11:40:53.630Z,25.33
2023-03-08T11:42:37.906Z,20.55
2023-03-08T11:44:17.895Z,27.00
2023-03-08T11:45:49.564Z,14.85
2023-03-08T11:47:52.833Z,18.00
2023-03-08T11:49:38.264Z,15.68
2023-03-08T11:52:38.928Z,16.20
2023-03-08T11:54:12.035Z,17.08
2023-03-08T11:55:48.010Z,15.55
2023-03-08T11:57:13.009Z,15.90
2023-03-08T11:58:43.394Z,18.30
2023-03-08T12:00:14.577Z,14.70
2023-03-08T12:01:48.508Z,12.80
2023-03-08T12:03:18.115Z,14.35
2023-03-08T12:05:03.799Z,12.60
2023-03-08T12:06:41.491Z,13.13
2023-03-08T12:08:27.956Z,12.00
2023-03-08T12:10:01.189Z,11.25
2023-03-08T12:11:28.880Z,11.35
2023-03-08T12:12:58.148Z,20.40
2023-03-08T12:14:30.388Z,11.07
2023-03-08T12:16:10.072Z,16.42
2023-03-08T12:17:40.610Z,12.93
2023-03-08T12:19:12.774Z,10.52
2023-03-08T12:20:41.489Z,13.98
2023-03-08T12:22:32.655Z,33.10
2023-03-08T12:24:11.306Z,13.48
2023-03-08T12:25:40.468Z,12.80
2023-03-08T12:27:27.105Z,16.42
2023-03-08T12:29:01.600Z,16.08
2023-03-08T12:30:36.557Z,18.60
2023-03-08T12:32:03.323Z,12.15
2023-03-08T12:33:30.739Z,15.82
2023-03-08T12:35:06.891Z,11.35
2023-03-08T12:36:42.946Z,14.25
2023-03-08T12:38:09.170Z,15.40
2023-03-08T12:39:45.502Z,14.25
2023-03-08T12:41:25.565Z,14.07
2023-03-08T12:42:48.911Z,13.23
2023-03-08T12:44:25.974Z,14.13
2023-03-08T12:46:01.643Z,13.52
2023-03-08T12:47:24.920Z,18.88
2023-03-08T12:48:52.508Z,15.43
2023-03-08T12:50:20.106Z,17.33
2023-03-08T12:51:51.118Z,17.83
2023-03-08T12:53:30.327Z,19.50
2023-03-08T12:55:15.084Z,13.68
2023-03-08T12:56:56.713Z,16.00
2023-03-08T12:58:24.868Z,16.60
2023-03-08T12:59:58.352Z,15.82
2023-03-08T13:02:05.205Z,15.65
2023-03-08T13:04:37.418Z,14.23
2023-03-08T13:06:16.041Z,17.75
2023-03-08T13:08:14.851Z,20.23
2023-03-08T13:10:08.361Z,17.67
2023-03-08T13:11:48.352Z,15.23
2023-03-08T13:13:38.572Z,15.38
2023-03-08T13:15:23.873Z,15.23
2023-03-08T13:17:07.753Z,17.30
2023-03-08T13:19:05.440Z,18.55
2023-03-08T13:20:56.551Z,16.40
2023-03-08T13:22:29.873Z,13.68
2023-03-08T13:24:09.553Z,15.98
2023-03-08T13:26:29.923Z,17.65
2023-03-08T13:28:26.327Z,14.30
2023-03-08T13:30:00.221Z,17.45
2023-03-08T13:31:42.662Z,16.92
2023-03-08T13:44:53.656Z,19.98
2023-03-08T14:05:59.231Z,19.88
2023-03-08T14:07:45.636Z,20.88
2023-03-08T14:09:12.504Z,23.30
2023-03-08T14:10:48.736Z,21.23
2023-03-08T14:12:19.073Z,28.35
2023-03-08T14:13:46.957Z,24.65
2023-03-08T14:15:20.206Z,26.27
2023-03-08T14:16:45.363Z,27.52
2023-03-08T14:18:11.775Z,26.38
2023-03-08T14:19:38.840Z,24.88
2023-03-08T14:21:09.824Z,25.55
2023-03-08T14:22:44.253Z,26.67
2023-03-08T14:24:22.665Z,28.58
2023-03-08T14:25:49.752Z,28.88
2023-03-08T14:27:34.866Z,31.42
2023-03-08T14:29:22.205Z,28.30
2023-03-08T14:30:49.275Z,30.52
2023-03-08T14:32:31.069Z,25.90
2023-03-08T14:34:01.947Z,25.90
2023-03-08T14:35:27.914Z,26.20
2023-03-08T14:36:56.828Z,29.85
2023-03-08T14:38:34.554Z,28.52
2023-03-08T14:40:19.118Z,27.80
2023-03-08T14:41:45.071Z,29.85
2023-03-08T14:43:16.955Z,32.67
2023-03-08T14:44:40.113Z,31.17
2023-03-08T14:46:07.717Z,29.92
2023-03-08T14:47:39.974Z,33.05
2023-03-08T14:49:27.672Z,33.85
2023-03-08T14:50:58.508Z,30.05
2023-03-08T14:52:26.555Z,29.23
2023-03-08T14:53:59.125Z,29.88
2023-03-08T14:55:33.343Z,31.60
2023-03-08T14:57:18.349Z,30.42
2023-03-08T14:58:43.867Z,24.05
2023-03-08T15:00:14.336Z,25.02
2023-03-08T15:01:38.901Z,29.58
2023-03-08T15:03:02.352Z,25.70
2023-03-08T15:04:27.694Z,31.02
2023-03-08T15:05:55.955Z,31.85
2023-03-08T15:07:22.406Z,30.98
2023-03-08T15:08:49.488Z,29.40
2023-03-08T15:10:25.503Z,35.65
2023-03-08T15:11:50.826Z,31.58
2023-03-08T15:13:16.661Z,34.03
2023-03-08T15:14:39.183Z,29.80
2023-03-08T15:19:29.664Z,36.83
2023-03-08T15:21:01.825Z,34.42
2023-03-08T15:22:46.144Z,35.88
2023-03-08T15:24:18.432Z,37.17
2023-03-08T15:25:49.519Z,36.13
2023-03-08T15:27:19.639Z,38.25
2023-03-08T15:28:44.281Z,34.33
2023-03-08T15:30:07.939Z,38.00
2023-03-08T15:31:31.339Z,40.47
2023-03-08T15:32:54.469Z,48.88
2023-03-08T15:34:17.024Z,38.47
2023-03-08T15:35:40.341Z,47.15
2023-03-08T15:37:02.878Z,53.55
2023-03-08T15:38:25.662Z,49.10
2023-03-08T15:39:50.924Z,51.47
2023-03-08T15:41:14.256Z,40.78
2023-03-08T15:42:36.816Z,37.78
2023-03-08T15:43:59.438Z,40.38
2023-03-08T15:45:21.994Z,45.75
2023-03-08T15:46:44.369Z,44.78
2023-03-08T15:48:08.651Z,46.72
2023-03-08T15:49:30.913Z,41.85
2023-03-08T15:50:53.452Z,35.28
2023-03-08T15:52:16.310Z,37.78
2023-03-08T15:53:38.877Z,36.45
2023-03-08T15:55:03.093Z,37.22
2023-03-08T15:56:26.294Z,35.10
2023-03-08T15:57:49.385Z,38.88
2023-03-08T15:59:23.424Z,38.05
2023-03-08T16:00:49.428Z,38.60
2023-03-08T16:02:16.458Z,42.17
2023-03-08T16:03:39.319Z,37.80
2023-03-08T16:05:02.382Z,40.20
2023-03-08T16:06:28.582Z,41.33
2023-03-08T16:07:55.568Z,39.17
2023-03-08T16:09:25.710Z,47.08
2023-03-08T16:10:51.092Z,52.78
2023-03-08T16:12:14.813Z,52.17
2023-03-08T16:13:37.003Z,56.55
2023-03-08T16:14:59.920Z,49.45
2023-03-08T16:16:45.112Z,54.00
2023-03-08T16:18:16.578Z,49.45
2023-03-08T16:19:45.388Z,43.25
2023-03-08T16:21:16.022Z,45.63
2023-03-08T16:22:43.399Z,49.35
2023-03-08T16:24:17.082Z,47.88
2023-03-08T16:26:13.991Z,44.80
2023-03-08T16:27:51.840Z,43.67
2023-03-08T16:29:18.791Z,42.97
2023-03-08T16:30:51.944Z,47.00
2023-03-08T16:32:16.355Z,46.38
2023-03-08T16:33:39.946Z,50.50
2023-03-08T16:35:04.442Z,48.20
2023-03-08T16:36:27.317Z,74.35
2023-03-08T16:37:55.396Z,67.20
2023-03-08T16:39:52.576Z,91.43
2023-03-08T16:41:37.362Z,70.07
2023-03-08T16:43:08.485Z,68.40
2023-03-08T16:44:32.040Z,89.47
2023-03-08T16:45:59.613Z,65.07
2023-03-08T16:47:43.969Z,81.07
2023-03-08T16:49:10.354Z,75.35
2023-03-08T16:50:32.816Z,84.82
2023-03-08T16:51:55.634Z,65.65
2023-03-08T16:53:18.400Z,72.72
2023-03-08T16:54:41.500Z,62.30
2023-03-08T16:56:04.690Z,63.22
2023-03-08T16:57:33.253Z,61.60
2023-03-08T16:59:31.403Z,58.10
2023-03-08T17:00:55.814Z,102.15
2023-03-08T17:02:23.317Z,276.48
2023-03-08T17:03:50.621Z,445.65
2023-03-08T17:05:14.216Z,662.67
2023-03-08T17:06:36.631Z,129.23
2023-03-08T17:07:59.128Z,89.80
2023-03-08T17:09:22.090Z,234.55
2023-03-08T17:10:46.329Z,223.88
2023-03-08T17:12:10.432Z,223.55
2023-03-08T17:13:33.484Z,184.07
2023-03-08T17:14:57.853Z,321.23
2023-03-08T17:16:21.407Z,134.32
2023-03-08T17:17:47.032Z,62.03
2023-03-08T17:19:10.652Z,89.38
2023-03-08T17:20:33.333Z,92.28
2023-03-08T17:21:56.039Z,54.00
2023-03-08T17:23:23.567Z,68.68
2023-03-08T17:24:49.541Z,54.50
2023-03-08T17:26:16.341Z,56.65
2023-03-08T17:27:39.295Z,49.05
2023-03-08T17:29:02.036Z,52.88
2023-03-08T17:30:26.537Z,51.22
2023-03-08T17:31:52.774Z,56.10
2023-03-08T17:33:17.843Z,55.38
2023-03-08T17:34:40.282Z,53.55
2023-03-08T17:36:03.216Z,54.22
2023-03-08T17:37:25.942Z,56.88
2023-03-08T17:39:01.776Z,72.18
2023-03-08T17:40:26.787Z,92.22
2023-03-08T17:41:49.309Z,69.45
2023-03-08T17:43:11.960Z,189.80
2023-03-08T17:44:35.064Z,135.95
2023-03-08T17:46:58.982Z,73.35
2023-03-08T17:48:59.454Z,65.35
2023-03-08T17:50:31.113Z,66.32
2023-03-08T17:51:55.062Z,110.65
2023-03-08T17:53:17.573Z,68.88
2023-03-08T17:54:40.315Z,74.57
2023-03-08T17:56:06.355Z,69.72
2023-03-08T17:57:29.032Z,67.47
2023-03-08T17:58:52.053Z,80.60
2023-03-08T18:00:18.548Z,72.55
2023-03-08T18:01:42.717Z,73.53
2023-03-08T18:03:04.656Z,79.45
2023-03-08T18:04:27.333Z,87.60
2023-03-08T18:05:50.862Z,78.57
2023-03-08T18:07:13.912Z,67.38
2023-03-08T18:08:37.306Z,62.35
2023-03-08T18:09:59.558Z,72.68
2023-03-08T18:11:23.758Z,70.72
2023-03-08T18:12:47.440Z,66.90
2023-03-08T18:14:13.522Z,65.80
2023-03-08T18:15:36.069Z,66.85
2023-03-08T18:17:00.862Z,64.05
2023-03-08T18:18:23.360Z,67.97
2023-03-08T18:19:46.605Z,73.93
2023-03-08T18:21:13.781Z,65.75
2023-03-08T18:22:40.831Z,59.83
2023-03-08T18:24:06.823Z,70.65
2023-03-08T18:25:31.408Z,67.22
2023-03-08T18:26:54.257Z,75.45
2023-03-08T18:28:22.276Z,79.00
2023-03-08T18:29:44.902Z,65.63
2023-03-08T18:31:09.423Z,78.78
2023-03-08T18:32:34.299Z,87.10
2023-03-08T18:34:06.365Z,78.63
2023-03-08T18:35:35.532Z,80.93
2023-03-08T18:36:59.110Z,66.25
2023-03-08T18:38:23.129Z,68.50
2023-03-08T18:40:00.466Z,53.78
2023-03-08T18:41:27.371Z,66.63
2023-03-08T18:43:04.385Z,56.38
2023-03-08T18:44:58.489Z,65.60
2023-03-08T18:46:28.821Z,51.85
2023-03-08T18:47:57.270Z,51.67
2023-03-08T18:49:20.361Z,53.97
2023-03-08T18:50:47.584Z,58.05
2023-03-08T18:52:12.797Z,53.70
2023-03-08T18:53:41.644Z,59.17
2023-03-08T18:55:04.176Z,55.22
2023-03-08T18:56:27.703Z,55.67
2023-03-08T19:00:55.581Z,53.73
2023-03-08T19:03:18.647Z,57.22
2023-03-08T19:05:16.698Z,73.20
2023-03-08T19:06:46.880Z,68.90
2023-03-08T19:10:53.709Z,56.90
2023-03-08T19:12:20.395Z,60.65
2023-03-08T19:13:42.065Z,65.50
2023-03-08T19:15:04.316Z,57.30
2023-03-08T19:16:26.980Z,58.35
2023-03-08T19:17:49.837Z,58.03
2023-03-08T19:19:14.513Z,57.60
2023-03-08T19:20:40.056Z,90.50
2023-03-08T19:22:04.528Z,69.38
2023-03-08T19:23:26.836Z,67.35
2023-03-08T19:24:49.068Z,65.15
2023-03-08T19:26:31.306Z,68.90
2023-03-08T19:27:53.902Z,62.72
2023-03-08T19:29:23.447Z,82.57
2023-03-08T19:30:44.948Z,99.32
2023-03-08T19:32:09.477Z,72.85
2023-03-08T19:33:32.020Z,68.15
2023-03-08T19:34:54.908Z,70.57
2023-03-08T19:36:19.308Z,75.68
2023-03-08T19:37:42.842Z,79.82
2023-03-08T19:39:06.823Z,76.15
2023-03-08T19:40:29.733Z,78.18
2023-03-08T19:41:52.822Z,78.90
2023-03-08T19:43:15.421Z,70.63
2023-03-08T19:44:40.106Z,71.85
2023-03-08T19:46:18.371Z,66.82
2023-03-08T19:47:41.034Z,66.53
2023-03-08T19:49:04.481Z,66.82
2023-03-08T19:50:47.546Z,68.97